This is the latest recevied weather packets stored in our database for station/object KB4KY. If no packets are shown the sender has not sent any weather packets the latest 10 day(s).
| Time | Temp. | Humidity | Pressure | Rain* | Wind** | Luminosity | Snow |
|---|---|---|---|---|---|---|---|
| 1778053169 | 12.22° C | 96% | 1006.1 hPa | 6.1 mm | - | - | - |
| 1778053097 | 12.22° C | 96% | 1006.1 hPa | 6.1 mm | - | - | - |
| 1778052909 | 13.89° C | 95% | 1005.6 hPa | 6.35 mm | - | - | - |
| 1778052828 | 12.22° C | 96% | 1005.9 hPa | 6.1 mm | - | - | - |
| 1778052796 | 12.22° C | 96% | 1005.9 hPa | 6.1 mm | - | - | - |
| 1778052680 | 15° C | 96% | 1005.3 hPa | 6.6 mm | - | - | - |
| 1778052494 | 12.78° C | 96% | 1005.7 hPa | 6.6 mm | - | - | - |
| 1778052195 | 13.89° C | 95% | 1005.6 hPa | 6.35 mm | - | - | - |
| 1778051894 | 15° C | 96% | 1005.3 hPa | 6.6 mm | - | - | - |
| 1778051597 | 15.56° C | 96% | 1005.2 hPa | 6.86 mm | - | - | - |
| 1778051305 | 15.56° C | 96% | 1005.3 hPa | 7.37 mm | - | - | - |
| 1778051001 | 15.56° C | 96% | 1005.3 hPa | 7.37 mm | - | - | - |
| 1778050693 | 15.56° C | 96% | 1005.2 hPa | 6.6 mm | - | - | - |
| 1778050394 | 15.56° C | 96% | 1005.2 hPa | 6.35 mm | - | - | - |
| 1778050092 | 15.56° C | 96% | 1005.2 hPa | 6.1 mm | - | - | - |
| 1778049794 | 15.56° C | 96% | 1005.2 hPa | 5.59 mm | - | - | - |
| 1778049491 | 15.56° C | 96% | 1005.2 hPa | 5.08 mm | - | - | - |
| 1778049269 | 15.56° C | 96% | 1005.1 hPa | 5.33 mm | - | - | - |
| 1778049196 | 15.56° C | 96% | 1005.1 hPa | 5.33 mm | - | - | - |
| 1778048959 | 15.56° C | 96% | 1005.2 hPa | 6.1 mm | - | - | - |
| 1778048959 | 15.56° C | 96% | 1005.1 hPa | 5.84 mm | - | - | - |
| 1778048959 | 15.56° C | 96% | 1005.2 hPa | 5.08 mm | - | - | - |
| 1778048891 | 15.56° C | 96% | 1005.2 hPa | 5.08 mm | - | - | - |
| 1778048593 | 15.56° C | 96% | 1005.1 hPa | 5.84 mm | - | - | - |
| 1778048293 | 15.56° C | 96% | 1005.2 hPa | 6.1 mm | - | - | - |
* Rain latest hour (hover to see other rain measurements)
** Current wind speed in m/s (hover to see current wind gust speed)